Time;durP1;ratioP1;P1;durP2;ratioP2;P2;SDS_P1;SDS_P2;PMS_P1;PMS_P2;Temp;Humidity;BMP_temperature;BMP_pressure;BME280_temperature;BME280_humidity;BME280_pressure;Samples;Min_cycle;Max_cycle;Signal;HPM_P1;HPM_P2
2021/01/14 00:03:17;;;;;;;9.47;7.20;;;5.20;99.90;;;;;;4958065;28;20866;-85
2021/01/14 00:05:43;;;;;;;11.70;7.23;;;5.20;99.90;;;;;;4957068;28;20465;-87
2021/01/14 00:08:10;;;;;;;9.13;7.00;;;5.20;99.90;;;;;;4969335;28;20182;-87
2021/01/14 00:10:37;;;;;;;9.40;7.00;;;5.30;99.90;;;;;;4990020;28;20417;-85
2021/01/14 00:13:05;;;;;;;9.83;7.37;;;5.20;99.90;;;;;;4986669;28;20453;-86
2021/01/14 00:15:31;;;;;;;12.87;8.20;;;5.20;99.90;;;;;;4970326;28;21266;-85
2021/01/14 00:17:57;;;;;;;11.40;8.00;;;5.20;99.90;;;;;;4973257;28;20428;-85
2021/01/14 00:20:22;;;;;;;11.40;6.90;;;5.20;99.90;;;;;;4990266;28;20197;-86
2021/01/14 00:22:51;;;;;;;9.50;6.70;;;5.10;99.90;;;;;;4969848;28;20252;-86
2021/01/14 00:25:18;;;;;;;10.77;7.17;;;5.20;99.90;;;;;;4976443;28;20201;-88
2021/01/14 00:27:45;;;;;;;7.93;7.13;;;5.30;99.90;;;;;;4969021;28;20421;-86
2021/01/14 00:30:17;;;;;;;10.57;7.60;;;5.30;99.90;;;;;;4983264;28;20479;-86
2021/01/14 00:32:43;;;;;;;10.57;8.27;;;5.20;99.90;;;;;;4953541;28;20493;-88
2021/01/14 00:35:13;;;;;;;9.97;6.60;;;5.10;99.90;;;;;;4985127;28;20433;-83
2021/01/14 00:37:55;;;;;;;9.37;7.17;;;5.10;99.90;;;;;;4981004;28;20437;-84
2021/01/14 00:40:25;;;;;;;9.70;6.43;;;5.10;99.90;;;;;;4974094;28;20529;-86
2021/01/14 00:43:04;;;;;;;8.97;6.57;;;5.10;99.90;;;;;;4985078;28;20440;-86
2021/01/14 00:45:31;;;;;;;8.77;5.47;;;5.10;99.90;;;;;;4985348;28;20511;-86
2021/01/14 00:47:57;;;;;;;7.97;5.53;;;5.10;99.90;;;;;;4986659;28;20463;-86
2021/01/14 00:50:25;;;;;;;7.90;6.80;;;5.00;99.90;;;;;;4971699;28;20425;-87
2021/01/14 00:52:51;;;;;;;8.90;6.70;;;5.00;99.90;;;;;;4986514;28;20229;-84
2021/01/14 00:55:17;;;;;;;9.37;6.63;;;5.00;99.90;;;;;;4971012;28;20872;-85
2021/01/14 00:57:44;;;;;;;6.37;5.67;;;5.00;99.90;;;;;;4969756;28;20201;-83
2021/01/14 01:00:18;;;;;;;8.70;6.30;;;5.00;99.90;;;;;;4986304;28;20444;-86
2021/01/14 01:02:48;;;;;;;7.20;5.60;;;5.00;99.90;;;;;;4971320;28;21542;-86
2021/01/14 01:05:16;;;;;;;4.93;3.03;;;5.00;99.90;;;;;;4983930;28;20561;-82
2021/01/14 01:07:57;;;;;;;4.60;3.93;;;4.90;99.90;;;;;;4985977;28;20441;-87
2021/01/14 01:10:23;;;;;;;4.47;3.27;;;4.80;99.90;;;;;;4983744;28;20489;-84
2021/01/14 01:12:53;;;;;;;3.47;2.97;;;4.80;99.90;;;;;;4953108;28;20461;-84
2021/01/14 01:15:19;;;;;;;3.83;3.20;;;4.70;99.90;;;;;;4969445;28;20808;-84
2021/01/14 01:17:45;;;;;;;3.47;2.57;;;4.70;99.90;;;;;;4984505;28;20445;-84
2021/01/14 01:20:11;;;;;;;2.70;2.20;;;4.60;99.90;;;;;;4986198;28;20502;-85
2021/01/14 01:22:37;;;;;;;2.10;2.00;;;4.60;99.90;;;;;;4968945;28;20213;-85
2021/01/14 01:25:03;;;;;;;2.47;1.77;;;4.50;99.90;;;;;;4966094;28;20480;-87
2021/01/14 01:27:29;;;;;;;2.63;2.20;;;4.50;99.90;;;;;;4951434;28;20219;-84
2021/01/14 01:29:55;;;;;;;2.03;1.80;;;4.40;99.90;;;;;;4954094;28;20459;-87
2021/01/14 01:32:21;;;;;;;2.00;1.80;;;4.20;99.90;;;;;;4967634;28;20209;-86
2021/01/14 01:34:46;;;;;;;1.60;1.50;;;4.20;99.90;;;;;;4968980;28;20456;-86
2021/01/14 01:37:15;;;;;;;2.20;1.80;;;4.10;99.90;;;;;;4985708;28;20190;-86
2021/01/14 01:39:41;;;;;;;2.60;1.80;;;4.10;99.90;;;;;;4953568;28;20201;-86
2021/01/14 01:42:07;;;;;;;2.33;1.70;;;4.00;99.90;;;;;;4966193;28;20808;-87
2021/01/14 01:44:32;;;;;;;1.83;1.73;;;4.00;99.90;;;;;;4986765;28;20253;-86
2021/01/14 01:47:05;;;;;;;2.47;1.50;;;4.00;99.90;;;;;;4964205;28;20279;-85
2021/01/14 01:49:35;;;;;;;1.70;1.50;;;4.00;99.90;;;;;;4982528;28;20190;-85
2021/01/14 01:52:03;;;;;;;2.53;1.60;;;3.90;99.90;;;;;;4984729;28;20424;-86
2021/01/14 01:54:32;;;;;;;1.63;1.30;;;3.80;99.90;;;;;;4981593;28;21155;-88
2021/01/14 01:56:59;;;;;;;1.43;1.30;;;3.80;99.90;;;;;;4970495;28;20425;-85
2021/01/14 01:59:25;;;;;;;1.60;1.40;;;3.80;99.90;;;;;;4966225;28;20487;-87
2021/01/14 02:01:51;;;;;;;1.60;1.50;;;3.70;99.90;;;;;;4952563;28;20441;-88
2021/01/14 02:04:17;;;;;;;1.60;1.50;;;3.70;99.90;;;;;;4952192;28;20547;-89
2021/01/14 02:06:52;;;;;;;2.10;1.57;;;3.70;99.90;;;;;;4965432;28;20285;-87
2021/01/14 02:09:21;;;;;;;2.03;1.40;;;3.60;99.90;;;;;;4967210;28;20190;-87
2021/01/14 02:11:56;;;;;;;2.13;1.77;;;3.60;99.90;;;;;;4983958;28;20834;-86
2021/01/14 02:14:28;;;;;;;2.00;1.80;;;3.60;99.90;;;;;;4981251;28;20452;-87
2021/01/14 02:16:55;;;;;;;1.90;1.47;;;3.60;99.90;;;;;;4967333;28;20512;-84
2021/01/14 02:19:45;;;;;;;1.50;1.40;;;3.60;99.90;;;;;;4983517;28;20436;-85
2021/01/14 02:22:29;;;;;;;1.83;1.60;;;3.60;99.90;;;;;;4984377;28;20760;-87
2021/01/14 02:24:57;;;;;;;2.03;1.83;;;3.60;99.90;;;;;;5001886;28;20469;-84
2021/01/14 02:27:24;;;;;;;1.63;1.53;;;3.60;99.90;;;;;;4979469;28;20425;-86
2021/01/14 02:29:52;;;;;;;2.30;1.80;;;3.60;99.90;;;;;;4962634;28;20966;-86
2021/01/14 02:32:18;;;;;;;4.50;1.50;;;3.60;99.90;;;;;;5005588;28;20504;-86
2021/01/14 02:34:44;;;;;;;2.03;1.83;;;3.60;99.90;;;;;;4956665;28;20492;-86
2021/01/14 02:37:11;;;;;;;2.23;2.03;;;3.50;99.90;;;;;;5006481;28;20194;-88
2021/01/14 02:39:37;;;;;;;1.73;1.50;;;3.50;99.90;;;;;;4983760;28;20440;-89
2021/01/14 02:42:03;;;;;;;2.57;1.80;;;3.50;99.90;;;;;;4981513;28;20461;-88
2021/01/14 02:44:28;;;;;;;2.30;1.80;;;3.40;99.90;;;;;;4986871;28;20495;-87
2021/01/14 02:46:57;;;;;;;3.57;1.87;;;3.40;99.90;;;;;;4988193;28;21033;-88
2021/01/14 02:49:27;;;;;;;1.60;1.50;;;3.40;99.90;;;;;;4950301;28;20296;-87
2021/01/14 02:51:57;;;;;;;2.53;1.77;;;3.40;99.90;;;;;;4968010;28;20426;-85
2021/01/14 02:54:23;;;;;;;1.87;1.63;;;3.30;99.90;;;;;;5001900;28;20444;-87
2021/01/14 02:56:50;;;;;;;2.00;1.90;;;3.30;99.90;;;;;;4986563;28;20452;-87
2021/01/14 02:59:16;;;;;;;2.90;2.37;;;3.30;99.90;;;;;;4986727;28;20429;-87
2021/01/14 03:01:42;;;;;;;2.40;2.10;;;3.30;99.90;;;;;;4979143;28;20427;-86
2021/01/14 03:04:11;;;;;;;2.10;1.90;;;3.30;99.90;;;;;;4969149;28;20485;-85
2021/01/14 03:06:37;;;;;;;2.27;1.83;;;3.30;99.90;;;;;;5003466;28;20193;-85
2021/01/14 03:09:04;;;;;;;1.93;1.57;;;3.30;99.90;;;;;;5001877;28;20434;-85
2021/01/14 03:11:32;;;;;;;2.60;2.20;;;3.30;99.90;;;;;;4991288;28;20431;-87
2021/01/14 03:13:57;;;;;;;1.97;1.87;;;3.30;99.90;;;;;;4986549;28;20491;-85
2021/01/14 03:16:23;;;;;;;2.37;2.17;;;3.30;99.90;;;;;;4986876;28;20444;-86
2021/01/14 03:18:50;;;;;;;2.93;2.30;;;3.20;99.90;;;;;;4971101;28;20669;-84
2021/01/14 03:21:23;;;;;;;2.57;2.10;;;3.20;99.90;;;;;;4985867;28;20453;-83
2021/01/14 03:23:50;;;;;;;2.93;1.90;;;3.20;99.90;;;;;;4999753;28;20553;-85
2021/01/14 03:26:16;;;;;;;3.10;2.47;;;3.20;99.90;;;;;;4975365;28;20441;-86
2021/01/14 03:28:42;;;;;;;2.90;2.00;;;3.20;99.90;;;;;;4970213;28;20445;-86
2021/01/14 03:31:13;;;;;;;2.20;2.00;;;3.10;99.90;;;;;;4975367;28;20960;-85
2021/01/14 03:33:43;;;;;;;3.90;2.90;;;3.10;99.90;;;;;;4990878;28;20539;-83
2021/01/14 03:36:13;;;;;;;3.40;1.70;;;3.10;99.90;;;;;;4973822;28;20530;-84
2021/01/14 03:38:39;;;;;;;2.57;2.00;;;3.10;99.90;;;;;;4990802;28;20425;-85
2021/01/14 03:41:09;;;;;;;2.10;1.90;;;3.10;99.90;;;;;;4989709;28;20449;-86
2021/01/14 03:43:35;;;;;;;3.07;1.90;;;3.10;99.90;;;;;;4973559;28;20438;-86
2021/01/14 03:46:07;;;;;;;2.40;2.07;;;3.10;99.90;;;;;;4990870;28;20464;-84
2021/01/14 03:48:38;;;;;;;2.00;1.57;;;3.10;99.90;;;;;;4989476;28;20464;-88
2021/01/14 03:51:05;;;;;;;2.60;2.40;;;3.00;99.90;;;;;;4974038;28;20432;-86
2021/01/14 03:53:30;;;;;;;5.80;2.20;;;3.00;99.90;;;;;;4974716;28;20520;-85
2021/01/14 03:55:56;;;;;;;2.47;2.13;;;3.00;99.90;;;;;;4971357;28;20446;-86
2021/01/14 03:58:22;;;;;;;2.43;2.23;;;3.00;99.90;;;;;;4992961;28;20181;-84
2021/01/14 04:00:47;;;;;;;3.47;2.50;;;3.00;99.90;;;;;;4972157;28;20616;-85
2021/01/14 04:03:17;;;;;;;3.90;2.30;;;3.00;99.90;;;;;;4989687;28;20385;-86
2021/01/14 04:05:42;;;;;;;6.07;3.37;;;2.90;99.90;;;;;;4990773;28;20210;-85
2021/01/14 04:08:08;;;;;;;2.50;1.93;;;2.90;99.90;;;;;;4991462;28;20426;-87
2021/01/14 04:10:34;;;;;;;3.27;2.50;;;2.90;99.90;;;;;;4990818;28;20178;-86
2021/01/14 04:13:02;;;;;;;4.47;2.47;;;2.80;99.90;;;;;;4989459;28;20472;-84
2021/01/14 04:15:28;;;;;;;2.30;2.07;;;2.80;99.90;;;;;;4991222;28;20189;-83
2021/01/14 04:17:54;;;;;;;4.30;3.53;;;2.90;99.90;;;;;;4991579;28;20468;-87
2021/01/14 04:20:19;;;;;;;4.20;2.93;;;2.90;99.90;;;;;;4974158;28;20267;-85
2021/01/14 04:22:45;;;;;;;3.40;2.60;;;2.80;99.90;;;;;;4972650;28;20724;-86
2021/01/14 04:25:11;;;;;;;4.30;2.43;;;2.80;99.90;;;;;;4956207;28;20218;-86
2021/01/14 04:27:36;;;;;;;3.90;2.20;;;2.80;99.90;;;;;;4959270;28;20765;-87
2021/01/14 04:30:03;;;;;;;3.80;3.07;;;2.80;99.90;;;;;;4986833;28;20491;-86
2021/01/14 04:32:31;;;;;;;5.60;3.10;;;2.80;99.90;;;;;;4974585;28;20202;-86
2021/01/14 04:34:57;;;;;;;3.47;2.70;;;2.80;99.90;;;;;;4987044;28;21026;-87
2021/01/14 04:37:23;;;;;;;4.33;3.10;;;2.80;99.90;;;;;;4988928;28;20421;-88
2021/01/14 04:39:49;;;;;;;3.03;2.60;;;2.70;99.90;;;;;;4940796;28;20194;-88
2021/01/14 04:42:17;;;;;;;3.73;2.97;;;2.60;99.90;;;;;;4990624;28;20186;-87
2021/01/14 04:44:43;;;;;;;4.87;2.87;;;2.60;99.90;;;;;;4972637;28;20209;-87
2021/01/14 04:47:14;;;;;;;3.27;2.90;;;2.60;99.90;;;;;;4973737;28;21034;-87
2021/01/14 04:49:40;;;;;;;4.80;3.40;;;2.60;99.90;;;;;;4988124;28;20269;-84
2021/01/14 04:52:18;;;;;;;4.20;3.33;;;2.50;99.90;;;;;;4990957;28;20441;-87
2021/01/14 04:54:44;;;;;;;4.60;3.33;;;2.50;99.90;;;;;;4988057;28;20436;-86
2021/01/14 04:57:19;;;;;;;6.40;2.93;;;2.50;99.90;;;;;;4974005;28;20433;-86
2021/01/14 04:59:52;;;;;;;5.10;3.43;;;2.40;99.90;;;;;;4966763;28;20193;-86
2021/01/14 05:02:24;;;;;;;4.80;3.60;;;2.30;99.90;;;;;;4971854;28;20504;-86
2021/01/14 05:04:54;;;;;;;4.27;3.13;;;2.40;99.90;;;;;;4968026;28;20546;-87
2021/01/14 05:07:31;;;;;;;4.80;3.73;;;2.30;99.90;;;;;;4971035;28;20546;-85
2021/01/14 05:10:05;;;;;;;5.03;3.50;;;2.20;99.90;;;;;;4971168;28;20536;-83
2021/01/14 05:12:32;;;;;;;3.90;3.50;;;2.20;99.90;;;;;;4990020;28;20898;-85
2021/01/14 05:14:59;;;;;;;4.83;3.23;;;2.20;99.90;;;;;;4988287;28;20440;-86
2021/01/14 05:17:27;;;;;;;4.43;3.47;;;2.20;99.90;;;;;;4989409;28;20432;-86
2021/01/14 05:19:56;;;;;;;4.47;4.00;;;2.10;99.90;;;;;;4989304;28;20432;-86
2021/01/14 05:22:25;;;;;;;5.10;4.07;;;2.10;99.90;;;;;;4984948;28;20501;-84
2021/01/14 05:25:04;;;;;;;4.60;3.50;;;2.10;99.90;;;;;;4990042;28;20504;-85
2021/01/14 05:27:29;;;;;;;3.97;3.47;;;2.00;99.90;;;;;;4969409;28;20430;-85
2021/01/14 05:30:08;;;;;;;6.50;4.57;;;2.00;99.90;;;;;;4990005;28;20444;-85
2021/01/14 05:32:44;;;;;;;4.33;3.83;;;2.00;99.90;;;;;;4967922;28;20224;-83
2021/01/14 05:35:13;;;;;;;5.27;3.70;;;2.00;99.90;;;;;;4988013;28;20553;-86
2021/01/14 05:37:43;;;;;;;4.90;4.20;;;1.90;99.90;;;;;;4989077;28;20450;-84
2021/01/14 05:40:12;;;;;;;4.30;3.57;;;1.90;99.90;;;;;;4989867;28;20436;-85
2021/01/14 05:42:38;;;;;;;6.40;4.13;;;1.90;99.90;;;;;;4969932;28;21086;-86
2021/01/14 05:45:07;;;;;;;4.67;3.67;;;1.90;99.90;;;;;;4988476;28;20466;-86
2021/01/14 05:47:32;;;;;;;5.07;4.57;;;1.90;99.90;;;;;;4985602;28;20555;-85
2021/01/14 05:50:04;;;;;;;5.33;4.80;;;1.80;99.90;;;;;;4990162;28;20562;-86
2021/01/14 05:52:31;;;;;;;7.37;4.50;;;1.80;99.90;;;;;;4987861;28;20280;-86
2021/01/14 05:55:04;;;;;;;5.00;3.40;;;1.90;99.90;;;;;;4988097;28;20452;-86
2021/01/14 05:57:32;;;;;;;5.87;5.27;;;1.80;99.90;;;;;;4984714;28;20442;-87
2021/01/14 06:00:00;;;;;;;10.13;3.90;;;1.80;99.90;;;;;;4971720;28;20438;-86
2021/01/14 06:02:30;;;;;;;5.47;4.13;;;1.70;99.90;;;;;;4971737;28;20799;-87
2021/01/14 06:04:59;;;;;;;6.60;5.47;;;1.70;99.90;;;;;;4989476;28;20470;-86
2021/01/14 06:07:38;;;;;;;5.77;4.87;;;1.80;99.90;;;;;;4990390;28;20439;-86
2021/01/14 06:10:05;;;;;;;6.40;4.67;;;1.80;99.90;;;;;;4990294;28;20427;-84
2021/01/14 06:12:31;;;;;;;9.07;5.60;;;1.80;99.90;;;;;;4993974;28;20463;-87
2021/01/14 06:14:56;;;;;;;9.27;5.33;;;1.70;99.90;;;;;;4974027;28;20456;-86
2021/01/14 06:17:33;;;;;;;7.93;5.87;;;1.70;99.90;;;;;;4993461;28;20832;-85
2021/01/14 06:20:08;;;;;;;9.70;4.50;;;1.70;99.90;;;;;;4977223;28;20194;-86
2021/01/14 06:22:38;;;;;;;7.30;4.80;;;1.70;99.90;;;;;;4993645;28;20980;-86
2021/01/14 06:25:07;;;;;;;6.20;4.70;;;1.80;99.90;;;;;;4991130;28;20602;-82
2021/01/14 06:27:33;;;;;;;7.50;4.77;;;1.80;99.90;;;;;;4963547;28;20972;-87
2021/01/14 06:30:07;;;;;;;7.73;5.37;;;1.80;99.90;;;;;;4991414;28;20439;-86
2021/01/14 06:32:35;;;;;;;9.10;6.30;;;1.80;99.90;;;;;;4972004;28;20678;-87
2021/01/14 06:35:02;;;;;;;7.17;5.07;;;1.80;99.90;;;;;;4974775;28;20474;-87
2021/01/14 06:37:28;;;;;;;7.83;5.53;;;1.80;99.90;;;;;;4989645;28;20435;-86
2021/01/14 06:39:58;;;;;;;5.70;4.33;;;1.80;99.90;;;;;;4968376;28;20462;-86
2021/01/14 06:42:31;;;;;;;5.37;4.10;;;1.80;99.90;;;;;;4991074;28;20486;-85
2021/01/14 06:44:59;;;;;;;9.80;5.03;;;1.80;99.90;;;;;;4970067;28;20477;-87
2021/01/14 06:47:38;;;;;;;6.10;4.50;;;1.80;99.90;;;;;;4990778;28;20466;-85
2021/01/14 06:50:19;;;;;;;5.50;4.57;;;1.90;99.90;;;;;;4953112;28;20436;-85
2021/01/14 06:53:02;;;;;;;6.40;4.77;;;1.80;99.90;;;;;;4973098;28;20489;-84
2021/01/14 06:55:47;;;;;;;9.83;4.90;;;1.90;99.90;;;;;;4993301;28;20427;-85
2021/01/14 06:58:16;;;;;;;10.20;4.00;;;1.90;99.90;;;;;;4990573;28;20579;-86
2021/01/14 07:00:47;;;;;;;11.53;4.20;;;1.90;99.90;;;;;;4976051;28;20968;-86
2021/01/14 07:03:13;;;;;;;7.73;5.30;;;1.90;99.90;;;;;;4975825;28;20460;-86
2021/01/14 07:05:54;;;;;;;7.70;5.43;;;1.90;99.90;;;;;;4990483;28;21253;-86
2021/01/14 07:08:58;;;;;;;8.10;5.00;;;1.80;99.90;;;;;;4970351;28;20728;-85
2021/01/14 07:11:32;;;;;;;8.73;5.07;;;1.80;99.90;;;;;;4986485;28;20457;-85
2021/01/14 07:14:05;;;;;;;8.93;4.90;;;1.80;99.90;;;;;;4956397;28;20452;-85
2021/01/14 07:16:32;;;;;;;11.00;4.87;;;1.90;99.90;;;;;;4973984;28;20532;-83
2021/01/14 07:18:58;;;;;;;8.50;5.60;;;1.80;99.90;;;;;;4955123;28;21049;-85
2021/01/14 07:21:30;;;;;;;8.50;5.80;;;1.80;99.90;;;;;;4973616;28;20511;-84
2021/01/14 07:24:18;;;;;;;10.00;5.43;;;1.80;99.90;;;;;;4968716;28;20226;-86
2021/01/14 07:26:45;;;;;;;8.47;4.90;;;1.90;99.90;;;;;;4985804;28;20428;-86
2021/01/14 07:29:13;;;;;;;9.07;5.90;;;1.90;99.90;;;;;;4968585;28;20727;-85
2021/01/14 07:32:05;;;;;;;10.83;4.97;;;1.90;99.90;;;;;;4972845;28;20432;-85
2021/01/14 07:34:41;;;;;;;6.87;4.33;;;1.90;99.90;;;;;;4985243;28;20840;-85
2021/01/14 07:37:15;;;;;;;8.70;5.10;;;1.90;99.90;;;;;;4987148;28;20444;-85
2021/01/14 07:39:56;;;;;;;7.70;4.73;;;1.90;99.90;;;;;;4954337;28;20449;-86
2021/01/14 07:42:31;;;;;;;7.00;5.10;;;1.90;99.90;;;;;;4965131;28;20444;-85
2021/01/14 07:45:05;;;;;;;8.73;4.67;;;1.90;99.90;;;;;;4968560;28;20490;-84
2021/01/14 07:47:32;;;;;;;7.17;5.33;;;1.90;99.90;;;;;;4987311;28;20425;-85
2021/01/14 07:50:00;;;;;;;9.40;5.90;;;1.90;99.90;;;;;;4988532;28;20427;-86
2021/01/14 07:52:35;;;;;;;8.80;5.27;;;1.80;99.90;;;;;;4970475;28;20433;-84
2021/01/14 07:55:05;;;;;;;4.60;3.90;;;1.90;99.90;;;;;;4988561;28;20454;-87
2021/01/14 07:57:44;;;;;;;10.47;4.80;;;1.80;99.90;;;;;;4987124;28;20416;-87
2021/01/14 08:00:23;;;;;;;7.57;5.40;;;1.80;99.90;;;;;;4984777;28;20984;-85
2021/01/14 08:03:14;;;;;;;7.37;4.30;;;1.80;99.90;;;;;;4982472;28;20502;-84
2021/01/14 08:05:58;;;;;;;7.43;4.80;;;1.80;99.90;;;;;;4984085;28;20483;-85
2021/01/14 08:08:34;;;;;;;6.90;4.50;;;1.80;99.90;;;;;;4970203;28;20432;-85
2021/01/14 08:11:19;;;;;;;4.70;3.90;;;1.80;99.90;;;;;;4986539;28;20708;-84
2021/01/14 08:14:05;;;;;;;9.83;6.47;;;1.80;99.90;;;;;;4984946;28;20985;-84
2021/01/14 08:16:36;;;;;;;7.87;5.40;;;1.80;99.90;;;;;;4957133;28;20536;-86
2021/01/14 08:19:14;;;;;;;6.87;4.20;;;1.80;99.90;;;;;;4986425;28;20501;-83
2021/01/14 08:22:02;;;;;;;4.43;3.33;;;1.80;99.90;;;;;;4983957;28;20445;-87
2021/01/14 08:24:39;;;;;;;11.17;5.17;;;1.80;99.90;;;;;;4972144;28;20501;-84
2021/01/14 08:27:06;;;;;;;5.90;4.80;;;1.90;99.90;;;;;;4973839;28;20433;-83
2021/01/14 08:29:39;;;;;;;8.57;5.53;;;1.90;99.90;;;;;;4984494;28;20432;-87
2021/01/14 08:32:24;;;;;;;4.23;3.70;;;1.90;99.90;;;;;;4970746;28;20515;-84
2021/01/14 08:34:52;;;;;;;6.37;4.27;;;1.90;99.90;;;;;;4984939;28;20427;-84
2021/01/14 08:37:32;;;;;;;7.00;5.17;;;1.90;99.90;;;;;;4972107;28;20457;-87
2021/01/14 08:39:59;;;;;;;7.47;5.43;;;2.00;99.90;;;;;;4964087;28;20430;-86
2021/01/14 08:42:37;;;;;;;9.57;5.73;;;2.00;99.90;;;;;;4966214;28;20448;-85
2021/01/14 08:45:08;;;;;;;8.30;4.60;;;2.00;99.90;;;;;;4973204;28;20502;-85
2021/01/14 08:47:58;;;;;;;6.43;5.27;;;2.10;99.90;;;;;;4954512;28;20436;-83
2021/01/14 08:50:43;;;;;;;5.03;3.60;;;2.10;99.90;;;;;;4974617;28;20456;-85
2021/01/14 08:53:33;;;;;;;6.60;4.53;;;2.10;99.90;;;;;;4989654;28;20975;-85
2021/01/14 08:56:05;;;;;;;5.80;4.60;;;2.10;99.90;;;;;;4970715;28;20452;-86
2021/01/14 08:58:37;;;;;;;7.80;5.00;;;2.10;99.90;;;;;;4973455;28;20925;-86
2021/01/14 09:01:05;;;;;;;5.80;4.30;;;2.20;99.90;;;;;;4956060;28;20445;-84
2021/01/14 09:03:32;;;;;;;6.47;4.73;;;2.20;99.90;;;;;;4969872;28;20505;-83
2021/01/14 09:05:58;;;;;;;8.90;4.60;;;2.20;99.90;;;;;;4967363;28;20500;-85
2021/01/14 09:08:23;;;;;;;8.07;4.63;;;2.30;99.90;;;;;;4951444;28;20472;-84
2021/01/14 09:10:55;;;;;;;5.10;3.53;;;2.30;99.90;;;;;;4968295;28;20188;-86
2021/01/14 09:13:26;;;;;;;5.30;3.20;;;2.20;99.90;;;;;;4986932;28;20476;-85
2021/01/14 09:15:54;;;;;;;5.37;3.83;;;2.20;99.90;;;;;;4958402;28;20452;-85
2021/01/14 09:18:31;;;;;;;5.07;3.73;;;2.10;99.90;;;;;;4985599;28;20792;-86
2021/01/14 09:20:57;;;;;;;4.83;3.47;;;2.20;99.90;;;;;;4950346;28;20937;-86
2021/01/14 09:23:27;;;;;;;6.53;4.60;;;2.20;99.90;;;;;;4970865;28;20471;-84
2021/01/14 09:25:56;;;;;;;4.47;4.00;;;2.20;99.90;;;;;;4988948;28;20515;-85
2021/01/14 09:28:27;;;;;;;3.73;3.43;;;2.20;99.90;;;;;;4972770;28;20453;-86
2021/01/14 09:30:55;;;;;;;3.23;2.80;;;2.30;99.90;;;;;;4949394;28;20485;-84
2021/01/14 09:33:25;;;;;;;5.03;3.73;;;2.30;99.90;;;;;;4957378;28;21227;-83
2021/01/14 09:36:10;;;;;;;5.50;3.50;;;2.20;99.90;;;;;;4988066;28;20814;-85
2021/01/14 09:38:56;;;;;;;7.93;3.83;;;2.30;99.90;;;;;;4987669;28;20843;-85
2021/01/14 09:41:36;;;;;;;5.07;3.67;;;2.20;99.90;;;;;;4965870;28;20461;-84
2021/01/14 09:44:10;;;;;;;4.63;2.90;;;2.30;99.90;;;;;;4989958;28;20808;-86
2021/01/14 09:46:40;;;;;;;6.37;3.93;;;2.40;99.90;;;;;;4972805;28;20447;-84
2021/01/14 09:49:11;;;;;;;4.53;3.40;;;2.30;99.90;;;;;;4989280;28;20980;-81
2021/01/14 09:51:38;;;;;;;4.80;3.27;;;2.40;99.90;;;;;;4961913;28;20793;-83
2021/01/14 09:54:06;;;;;;;5.20;3.43;;;2.40;99.90;;;;;;4972320;28;20460;-86
2021/01/14 09:56:49;;;;;;;4.93;3.20;;;2.50;99.90;;;;;;4969757;28;20438;-84
2021/01/14 09:59:35;;;;;;;5.77;3.30;;;2.60;99.90;;;;;;4955243;28;20439;-86
2021/01/14 10:02:24;;;;;;;4.47;2.93;;;2.60;99.90;;;;;;4971130;28;20466;-85
2021/01/14 10:04:56;;;;;;;3.60;3.20;;;2.50;99.90;;;;;;4976487;28;20468;-86
2021/01/14 10:07:22;;;;;;;3.40;3.10;;;2.50;99.90;;;;;;4987318;28;20500;-87
2021/01/14 10:09:51;;;;;;;3.37;2.50;;;2.50;99.90;;;;;;4967986;28;20444;-83
2021/01/14 10:12:17;;;;;;;5.83;2.77;;;2.60;99.90;;;;;;4974343;28;20466;-85
2021/01/14 10:14:43;;;;;;;5.80;3.50;;;2.60;99.90;;;;;;4959119;28;20451;-83
2021/01/14 10:17:16;;;;;;;6.23;3.47;;;2.70;99.90;;;;;;4972390;28;20586;-86
2021/01/14 10:19:47;;;;;;;3.77;3.20;;;2.70;99.90;;;;;;4988373;28;20441;-86
2021/01/14 10:22:14;;;;;;;3.90;3.30;;;2.80;99.90;;;;;;4975967;28;20453;-83
2021/01/14 10:24:39;;;;;;;4.00;2.83;;;2.80;99.90;;;;;;4972424;28;20476;-83
2021/01/14 10:27:16;;;;;;;8.43;3.43;;;2.90;99.90;;;;;;4972066;28;20439;-86
2021/01/14 10:29:43;;;;;;;5.57;3.40;;;2.90;99.90;;;;;;4971157;28;20189;-85
2021/01/14 10:32:12;;;;;;;4.87;3.57;;;3.00;99.90;;;;;;4971307;28;21251;-84
2021/01/14 10:34:43;;;;;;;6.53;2.57;;;2.90;99.90;;;;;;4989695;28;20839;-87
2021/01/14 10:37:22;;;;;;;5.43;3.47;;;2.80;99.90;;;;;;4987410;28;20413;-86
2021/01/14 10:39:52;;;;;;;4.90;3.33;;;2.70;99.90;;;;;;4984648;28;20439;-83
2021/01/14 10:42:37;;;;;;;3.93;2.90;;;2.80;99.90;;;;;;4980400;28;20546;-84
2021/01/14 10:45:11;;;;;;;3.43;2.60;;;2.90;99.90;;;;;;4973717;28;21183;-86
2021/01/14 10:47:41;;;;;;;5.00;3.70;;;2.90;99.90;;;;;;4967758;28;20430;-83
2021/01/14 10:50:25;;;;;;;3.10;2.80;;;2.90;99.90;;;;;;4989305;28;20475;-85
2021/01/14 10:52:59;;;;;;;5.07;3.00;;;2.80;99.90;;;;;;4971981;28;20511;-84
2021/01/14 10:55:28;;;;;;;4.40;3.70;;;2.80;99.90;;;;;;4972866;28;20446;-86
2021/01/14 10:57:55;;;;;;;5.80;3.60;;;3.00;99.90;;;;;;4988899;28;20443;-81
2021/01/14 11:00:23;;;;;;;5.27;3.60;;;3.10;99.90;;;;;;4986162;28;20467;-81
2021/01/14 11:03:10;;;;;;;4.90;3.60;;;3.10;99.90;;;;;;4988677;28;21101;-89
2021/01/14 11:05:58;;;;;;;5.90;3.93;;;3.20;99.90;;;;;;4973329;28;20547;-86
2021/01/14 11:08:44;;;;;;;4.10;3.57;;;3.20;99.90;;;;;;4972597;28;20475;-86
2021/01/14 11:11:14;;;;;;;4.77;3.63;;;3.30;99.90;;;;;;4970250;28;20512;-86
2021/01/14 11:13:49;;;;;;;5.10;3.33;;;3.20;99.90;;;;;;4985809;28;20954;-88
2021/01/14 11:16:17;;;;;;;5.53;3.80;;;3.10;99.90;;;;;;4969744;28;20437;-87
2021/01/14 11:18:45;;;;;;;6.90;4.00;;;3.20;99.90;;;;;;4968685;28;20457;-89
2021/01/14 11:21:14;;;;;;;6.43;3.70;;;3.20;99.90;;;;;;4967886;28;20452;-86
2021/01/14 11:23:40;;;;;;;8.27;4.57;;;3.20;99.90;;;;;;4970817;28;20467;-85
2021/01/14 11:26:08;;;;;;;4.40;3.53;;;3.30;99.90;;;;;;4969613;28;20476;-88
2021/01/14 11:28:41;;;;;;;5.77;4.57;;;3.30;99.90;;;;;;4979679;28;20429;-86
2021/01/14 11:31:17;;;;;;;7.67;4.30;;;3.30;99.90;;;;;;4969194;28;20980;-87
2021/01/14 11:33:44;;;;;;;5.20;4.27;;;3.20;99.90;;;;;;4985482;28;20543;-89
2021/01/14 11:36:11;;;;;;;6.90;4.40;;;3.10;99.90;;;;;;4970197;28;20521;-91
2021/01/14 11:38:38;;;;;;;5.07;3.87;;;3.00;99.90;;;;;;4966940;28;20445;-86
2021/01/14 11:41:04;;;;;;;6.73;3.80;;;3.00;99.90;;;;;;4970226;28;20524;-88
2021/01/14 11:43:33;;;;;;;5.93;4.13;;;3.00;99.90;;;;;;4985940;28;21096;-88
2021/01/14 11:45:59;;;;;;;6.30;4.13;;;3.00;99.90;;;;;;4964332;28;20205;-85
2021/01/14 11:48:25;;;;;;;6.03;4.20;;;3.00;99.90;;;;;;4953486;28;20520;-87
2021/01/14 11:50:51;;;;;;;5.50;3.83;;;3.00;99.90;;;;;;4987439;28;20531;-88
2021/01/14 11:53:19;;;;;;;7.20;3.80;;;3.10;99.90;;;;;;4983649;28;21078;-88
2021/01/14 11:55:45;;;;;;;4.70;3.83;;;3.20;99.90;;;;;;4967977;28;20715;-86
2021/01/14 11:58:11;;;;;;;5.03;4.07;;;3.20;99.90;;;;;;4986257;28;20433;-87
2021/01/14 12:00:37;;;;;;;6.93;4.30;;;3.30;99.90;;;;;;4969870;28;20281;-88
2021/01/14 12:03:07;;;;;;;8.00;4.27;;;3.30;99.90;;;;;;4971394;28;20607;-86
2021/01/14 12:05:33;;;;;;;5.60;3.70;;;3.30;99.90;;;;;;4982838;28;20216;-87
2021/01/14 12:08:11;;;;;;;5.33;3.30;;;3.30;99.90;;;;;;4952782;28;20438;-86
2021/01/14 12:10:50;;;;;;;4.30;3.40;;;3.30;99.90;;;;;;4971376;28;20593;-87
2021/01/14 12:13:16;;;;;;;4.60;3.77;;;3.30;99.90;;;;;;4953564;28;20587;-86
2021/01/14 12:15:41;;;;;;;4.63;3.53;;;3.40;99.90;;;;;;4990065;28;20516;-86
2021/01/14 12:18:07;;;;;;;4.67;3.60;;;3.50;99.90;;;;;;4990224;28;20190;-85
2021/01/14 12:20:32;;;;;;;4.23;3.33;;;3.60;99.90;;;;;;4991976;28;20236;-84
2021/01/14 12:22:58;;;;;;;5.90;3.77;;;3.70;99.90;;;;;;4992828;28;20971;-84
2021/01/14 12:25:24;;;;;;;6.40;5.00;;;3.80;99.90;;;;;;4993222;28;20217;-85
2021/01/14 12:27:49;;;;;;;7.20;4.33;;;3.80;99.90;;;;;;4968056;28;20193;-86
2021/01/14 12:30:15;;;;;;;5.67;4.20;;;3.90;99.90;;;;;;4971273;28;20186;-86
2021/01/14 12:32:41;;;;;;;4.20;3.53;;;4.00;99.90;;;;;;4974985;28;20197;-87
2021/01/14 12:35:07;;;;;;;5.83;4.40;;;4.10;99.90;;;;;;4964074;28;21050;-84
2021/01/14 12:37:38;;;;;;;4.80;4.20;;;4.10;99.90;;;;;;4969836;28;20249;-84
2021/01/14 12:40:06;;;;;;;5.27;4.00;;;4.10;99.90;;;;;;4964531;28;20497;-85
2021/01/14 12:42:32;;;;;;;6.50;4.13;;;4.20;99.90;;;;;;4986563;28;20449;-83
2021/01/14 12:44:58;;;;;;;5.60;4.47;;;4.10;99.90;;;;;;4969158;28;21307;-83
2021/01/14 12:47:24;;;;;;;6.33;4.50;;;4.10;99.90;;;;;;4969579;28;20201;-87
2021/01/14 12:49:50;;;;;;;5.97;4.33;;;4.00;99.90;;;;;;4985668;28;20186;-79
2021/01/14 12:52:19;;;;;;;4.63;4.23;;;4.00;99.90;;;;;;4982851;28;20445;-85
2021/01/14 12:54:44;;;;;;;5.40;4.40;;;4.00;99.90;;;;;;4970617;28;20515;-84
2021/01/14 12:57:10;;;;;;;3.70;3.40;;;4.10;99.90;;;;;;4988924;28;20440;-83
2021/01/14 12:59:36;;;;;;;5.43;3.40;;;4.00;99.90;;;;;;4987837;28;20224;-80
2021/01/14 13:02:05;;;;;;;4.97;4.43;;;4.00;99.90;;;;;;4969493;28;20197;-81
2021/01/14 13:04:31;;;;;;;6.70;4.47;;;4.00;99.90;;;;;;4990363;28;20209;-82
2021/01/14 13:06:57;;;;;;;4.13;3.73;;;4.00;99.90;;;;;;4938752;28;20592;-82
2021/01/14 13:09:30;;;;;;;4.27;3.43;;;4.00;99.90;;;;;;4973364;28;20743;-84
2021/01/14 13:11:57;;;;;;;5.73;4.30;;;3.90;99.90;;;;;;4973213;28;20436;-84
2021/01/14 13:14:25;;;;;;;6.67;4.33;;;4.00;99.90;;;;;;4955097;28;20523;-82
2021/01/14 13:16:54;;;;;;;9.20;3.83;;;4.00;99.90;;;;;;4971971;28;20449;-83